SIA309 EGKK-WSSS
Flight info
| Callsign | SIA309 |
|---|---|
| Flight time | N/A |
| Altitude | 35000 |
| Route | MIMFO Y312 DVR L9 KONAN UL607 KOK DCT REMBA DCT MATUG DCT AMASI DCT BOMBI DCT TENLO DCT DEXIT DCT PESAT DCT TEGRI DCT LUGEB DCT UDROS DCT CRM/N0484F370 UM11 TBN UR317 REBLO M11 LUSAL N199 BAKUV N701 LARGI B701 KRS A240 INRAK B449 DOLOS B475 RUBAD A846 RANAH L750 DUDEG/N0480F390 L750 ZB G202 RK P628 IBANI L510 LEGIN/N0484F410 L510 GIVAL P628 VPL Y503 RINBA Y507 MAKNA Y511 TOPOR A464 ARAMA DCT TEBUN TEBUN1B |
| Aircraft | A359/H-SDE2E3GHIJ3J4J5LM1ORWXY/LB1D1 |
Departure
| Time | 2026-04-14 14:38 |
|---|---|
| Airport | London Gatwick Airport (EGKK) |
Arrival
| Time | N/A |
|---|---|
| Airport | Singapore Changi Airport (WSSS) |
| Time | Latitude | Longitude | Altitude | Speed | Heading |
|---|---|---|---|---|---|
| 2026-04-14 14:04 | 51.15970 | -0.17148 | 220 ft | 0 kts | 322° |
| 2026-04-14 14:21 | 51.15959 | -0.17134 | 221 ft | 4 kts | 318° |
| 2026-04-14 14:21 | 51.15941 | -0.17103 | 220 ft | 4 kts | 303° |
| 2026-04-14 14:21 | 51.15929 | -0.17066 | 213 ft | 4 kts | 277° |
| 2026-04-14 14:21 | 51.15933 | -0.17031 | 215 ft | 4 kts | 217° |
| 2026-04-14 14:22 | 51.15940 | -0.17024 | 223 ft | 0 kts | 209° |
| 2026-04-14 14:27 | 51.15938 | -0.17025 | 211 ft | 1 kts | 209° |
| 2026-04-14 14:27 | 51.15921 | -0.17041 | 222 ft | 5 kts | 208° |
| 2026-04-14 14:28 | 51.15884 | -0.17066 | 218 ft | 6 kts | 199° |
| 2026-04-14 14:28 | 51.15840 | -0.17080 | 216 ft | 7 kts | 185° |
| 2026-04-14 14:28 | 51.15790 | -0.17074 | 211 ft | 8 kts | 172° |
| 2026-04-14 14:28 | 51.15729 | -0.17056 | 219 ft | 9 kts | 169° |
| 2026-04-14 14:29 | 51.15667 | -0.17051 | 216 ft | 8 kts | 198° |
| 2026-04-14 14:29 | 51.15635 | -0.17121 | 217 ft | 8 kts | 247° |
| 2026-04-14 14:29 | 51.15619 | -0.17210 | 220 ft | 9 kts | 257° |
| 2026-04-14 14:29 | 51.15616 | -0.17232 | 218 ft | 0 kts | 257° |
| 2026-04-14 14:32 | 51.15615 | -0.17237 | 218 ft | 3 kts | 257° |
| 2026-04-14 14:32 | 51.15604 | -0.17313 | 222 ft | 10 kts | 257° |
| 2026-04-14 14:32 | 51.15577 | -0.17416 | 221 ft | 10 kts | 219° |
| 2026-04-14 14:32 | 51.15512 | -0.17427 | 219 ft | 10 kts | 172° |
| 2026-04-14 14:33 | 51.15443 | -0.17406 | 214 ft | 10 kts | 168° |
| 2026-04-14 14:33 | 51.15374 | -0.17382 | 219 ft | 10 kts | 168° |
| 2026-04-14 14:33 | 51.15304 | -0.17357 | 222 ft | 10 kts | 167° |
| 2026-04-14 14:33 | 51.15242 | -0.17305 | 220 ft | 10 kts | 149° |
| 2026-04-14 14:34 | 51.15196 | -0.17258 | 220 ft | 0 kts | 146° |
| 2026-04-14 14:36 | 51.15195 | -0.17257 | 220 ft | 1 kts | 146° |
| 2026-04-14 14:36 | 51.15174 | -0.17235 | 223 ft | 7 kts | 145° |
| 2026-04-14 14:36 | 51.15134 | -0.17174 | 223 ft | 9 kts | 145° |
| 2026-04-14 14:37 | 51.15088 | -0.17178 | 221 ft | 6 kts | 212° |
| 2026-04-14 14:37 | 51.15068 | -0.17234 | 214 ft | 7 kts | 249° |
| 2026-04-14 14:37 | 51.15023 | -0.17534 | 220 ft | 61 kts | 258° |
| 2026-04-14 14:37 | 51.14879 | -0.18578 | 223 ft | 130 kts | 257° |
| 2026-04-14 14:38 | 51.14635 | -0.20303 | 311 ft | 179 kts | 256° |
| 2026-04-14 14:38 | 51.14398 | -0.22213 | 1216 ft | 174 kts | 253° |
| 2026-04-14 14:38 | 51.14156 | -0.24140 | 1861 ft | 180 kts | 251° |
| 2026-04-14 14:38 | 51.13880 | -0.26150 | 2221 ft | 194 kts | 252° |
| 2026-04-14 14:39 | 51.13775 | -0.28344 | 2515 ft | 214 kts | 273° |
| 2026-04-14 14:39 | 51.14388 | -0.30598 | 2916 ft | 233 kts | 307° |
| 2026-04-14 14:39 | 51.15770 | -0.32007 | 3355 ft | 245 kts | 344° |
| 2026-04-14 14:39 | 51.17476 | -0.31910 | 3800 ft | 253 kts | 20° |
| 2026-04-14 14:40 | 51.18888 | -0.30276 | 3983 ft | 253 kts | 58° |
| 2026-04-14 14:40 | 51.19517 | -0.27757 | 4002 ft | 243 kts | 83° |
| 2026-04-14 14:40 | 51.19820 | -0.25130 | 3997 ft | 244 kts | 84° |
| 2026-04-14 14:40 | 51.20130 | -0.22446 | 3998 ft | 246 kts | 84° |
| 2026-04-14 14:41 | 51.20462 | -0.19763 | 3995 ft | 249 kts | 83° |
| 2026-04-14 14:41 | 51.20812 | -0.16949 | 4005 ft | 268 kts | 83° |
| 2026-04-14 14:41 | 51.21180 | -0.13986 | 4072 ft | 274 kts | 83° |
| 2026-04-14 14:41 | 51.21566 | -0.10998 | 4449 ft | 276 kts | 83° |
| 2026-04-14 14:42 | 51.21961 | -0.07976 | 4878 ft | 278 kts | 82° |
| 2026-04-14 14:42 | 51.22356 | -0.04959 | 4992 ft | 279 kts | 82° |
| 2026-04-14 14:42 | 51.22747 | -0.01963 | 4995 ft | 279 kts | 82° |
| 2026-04-14 14:42 | 51.23143 | 0.01090 | 4925 ft | 280 kts | 82° |
| 2026-04-14 14:43 | 51.23539 | 0.04155 | 4921 ft | 282 kts | 82° |
| 2026-04-14 14:43 | 51.23937 | 0.07231 | 4908 ft | 283 kts | 81° |
| 2026-04-14 14:43 | 51.24331 | 0.10271 | 4895 ft | 283 kts | 82° |
| 2026-04-14 14:43 | 51.24727 | 0.13342 | 4881 ft | 282 kts | 81° |
| 2026-04-14 14:44 | 51.25122 | 0.16411 | 4872 ft | 282 kts | 82° |
| 2026-04-14 14:44 | 51.25443 | 0.19501 | 4849 ft | 281 kts | 91° |
| 2026-04-14 14:44 | 51.25336 | 0.22582 | 4938 ft | 278 kts | 101° |
| 2026-04-14 14:44 | 51.25091 | 0.25647 | 5337 ft | 279 kts | 101° |
| 2026-04-14 14:45 | 51.24848 | 0.28745 | 5761 ft | 282 kts | 101° |
| 2026-04-14 14:45 | 51.24608 | 0.31858 | 5816 ft | 283 kts | 100° |
| 2026-04-14 14:45 | 51.24376 | 0.34941 | 5850 ft | 282 kts | 100° |
| 2026-04-14 14:45 | 51.24136 | 0.38072 | 6064 ft | 285 kts | 100° |
| 2026-04-14 14:46 | 51.23894 | 0.41228 | 6571 ft | 287 kts | 100° |
| 2026-04-14 14:46 | 51.23652 | 0.44388 | 7181 ft | 286 kts | 100° |
| 2026-04-14 14:46 | 51.23410 | 0.47561 | 7717 ft | 289 kts | 100° |
| 2026-04-14 14:46 | 51.23169 | 0.50718 | 8255 ft | 291 kts | 99° |
| 2026-04-14 14:47 | 51.22925 | 0.53929 | 8846 ft | 291 kts | 100° |
| 2026-04-14 14:47 | 51.22675 | 0.57150 | 9458 ft | 293 kts | 99° |
| 2026-04-14 14:47 | 51.22419 | 0.60391 | 10008 ft | 295 kts | 99° |
| 2026-04-14 14:47 | 51.22158 | 0.63694 | 10333 ft | 306 kts | 100° |
| 2026-04-14 14:48 | 51.21883 | 0.67146 | 10595 ft | 319 kts | 100° |
| 2026-04-14 14:48 | 51.21601 | 0.70676 | 10866 ft | 330 kts | 99° |
| 2026-04-14 14:48 | 51.21306 | 0.74380 | 11117 ft | 342 kts | 99° |
| 2026-04-14 14:48 | 51.20999 | 0.78222 | 11374 ft | 354 kts | 99° |
| 2026-04-14 14:49 | 51.20681 | 0.82188 | 11639 ft | 365 kts | 99° |
| 2026-04-14 14:49 | 51.20355 | 0.86261 | 11901 ft | 375 kts | 99° |
| 2026-04-14 14:49 | 51.20020 | 0.90460 | 12129 ft | 385 kts | 99° |
| 2026-04-14 14:49 | 51.19679 | 0.94689 | 12433 ft | 394 kts | 99° |
| 2026-04-14 14:50 | 51.19321 | 0.99085 | 12730 ft | 400 kts | 98° |
| 2026-04-14 14:50 | 51.18959 | 1.03523 | 13057 ft | 406 kts | 98° |
| 2026-04-14 14:50 | 51.18592 | 1.08008 | 13474 ft | 408 kts | 98° |
| 2026-04-14 14:50 | 51.18224 | 1.12513 | 13900 ft | 411 kts | 99° |
| 2026-04-14 14:51 | 51.17853 | 1.17003 | 14235 ft | 415 kts | 99° |
| 2026-04-14 14:51 | 51.17471 | 1.21586 | 14609 ft | 417 kts | 98° |
| 2026-04-14 14:51 | 51.17086 | 1.26174 | 14978 ft | 419 kts | 98° |
| 2026-04-14 14:51 | 51.16694 | 1.30813 | 15326 ft | 422 kts | 98° |
| 2026-04-14 14:52 | 51.16301 | 1.35457 | 15720 ft | 424 kts | 98° |
| 2026-04-14 14:52 | 51.15942 | 1.40139 | 16091 ft | 427 kts | 96° |
| 2026-04-14 14:52 | 51.15692 | 1.44870 | 16426 ft | 429 kts | 94° |
| 2026-04-14 14:52 | 51.15499 | 1.49556 | 16849 ft | 429 kts | 93° |
| 2026-04-14 14:53 | 51.15314 | 1.54331 | 17198 ft | 432 kts | 93° |
| 2026-04-14 14:53 | 51.15118 | 1.59146 | 17552 ft | 434 kts | 93° |
| 2026-04-14 14:53 | 51.14907 | 1.63946 | 17887 ft | 436 kts | 94° |
| 2026-04-14 14:53 | 51.14679 | 1.68787 | 18228 ft | 439 kts | 94° |
| 2026-04-14 14:54 | 51.14443 | 1.73596 | 18560 ft | 440 kts | 94° |
| 2026-04-14 14:54 | 51.14198 | 1.78467 | 18815 ft | 443 kts | 94° |
| 2026-04-14 14:54 | 51.13947 | 1.83368 | 19069 ft | 446 kts | 94° |
| 2026-04-14 14:54 | 51.13692 | 1.88310 | 19336 ft | 448 kts | 94° |
| 2026-04-14 14:55 | 51.13434 | 1.93280 | 19609 ft | 450 kts | 93° |
| 2026-04-14 14:55 | 51.13174 | 1.98266 | 19882 ft | 452 kts | 93° |
| 2026-04-14 14:55 | 51.12912 | 2.03295 | 20152 ft | 455 kts | 93° |
| 2026-04-14 14:55 | 51.12652 | 2.08253 | 20422 ft | 457 kts | 93° |
| 2026-04-14 14:56 | 51.12106 | 2.18409 | 20964 ft | 461 kts | 93° |
| 2026-04-14 14:56 | 51.11827 | 2.23506 | 21235 ft | 464 kts | 93° |
| 2026-04-14 14:56 | 51.11546 | 2.28632 | 21495 ft | 466 kts | 93° |
| 2026-04-14 14:57 | 51.11264 | 2.33735 | 21763 ft | 468 kts | 93° |
| 2026-04-14 14:57 | 51.10972 | 2.38973 | 22068 ft | 469 kts | 93° |
| 2026-04-14 14:57 | 51.10685 | 2.44086 | 22439 ft | 469 kts | 93° |
| 2026-04-14 14:57 | 51.10392 | 2.49273 | 22722 ft | 471 kts | 92° |
| 2026-04-14 14:58 | 51.10095 | 2.54481 | 22992 ft | 473 kts | 92° |
| 2026-04-14 14:58 | 51.09795 | 2.59726 | 23263 ft | 476 kts | 92° |
| 2026-04-14 14:58 | 51.09339 | 2.64952 | 23522 ft | 480 kts | 99° |
| 2026-04-14 14:58 | 51.08838 | 2.68412 | 23694 ft | 482 kts | 101° |
| 2026-04-14 14:59 | 51.07702 | 2.75274 | 23996 ft | 485 kts | 103° |
| 2026-04-14 14:59 | 51.06773 | 2.80465 | 24223 ft | 488 kts | 104° |
| 2026-04-14 14:59 | 51.05815 | 2.85671 | 24435 ft | 490 kts | 104° |
| 2026-04-14 14:59 | 51.05173 | 2.89133 | 24579 ft | 491 kts | 103° |
| 2026-04-14 15:00 | 51.03889 | 2.96060 | 24879 ft | 494 kts | 103° |
| 2026-04-14 15:00 | 51.03235 | 2.99597 | 25026 ft | 495 kts | 103° |
| 2026-04-14 15:00 | 51.01944 | 3.06590 | 25296 ft | 498 kts | 103° |
| 2026-04-14 15:00 | 51.01284 | 3.10167 | 25445 ft | 500 kts | 103° |
| 2026-04-14 15:01 | 51.00308 | 3.15457 | 25672 ft | 502 kts | 103° |
| 2026-04-14 15:01 | 50.99332 | 3.20733 | 25907 ft | 503 kts | 103° |
| 2026-04-14 15:01 | 50.98339 | 3.26086 | 26140 ft | 506 kts | 103° |
| 2026-04-14 15:01 | 50.97338 | 3.31464 | 26365 ft | 507 kts | 103° |
| 2026-04-14 15:02 | 50.96334 | 3.36841 | 26687 ft | 508 kts | 103° |
| 2026-04-14 15:02 | 50.95338 | 3.42160 | 26916 ft | 510 kts | 103° |
| 2026-04-14 15:02 | 50.94325 | 3.47562 | 27130 ft | 512 kts | 103° |
| 2026-04-14 15:02 | 50.93302 | 3.52996 | 27364 ft | 514 kts | 103° |
| 2026-04-14 15:03 | 50.92273 | 3.58445 | 27598 ft | 516 kts | 103° |
| 2026-04-14 15:03 | 50.91240 | 3.63901 | 27809 ft | 518 kts | 103° |
| 2026-04-14 15:03 | 50.90199 | 3.69383 | 28049 ft | 520 kts | 103° |
| 2026-04-14 15:03 | 50.89149 | 3.74895 | 28266 ft | 522 kts | 103° |
| 2026-04-14 15:04 | 50.88095 | 3.80407 | 28546 ft | 523 kts | 103° |
| 2026-04-14 15:04 | 50.87050 | 3.85855 | 28787 ft | 524 kts | 103° |
| 2026-04-14 15:04 | 50.85986 | 3.91395 | 28959 ft | 527 kts | 103° |
| 2026-04-14 15:04 | 50.84912 | 3.96968 | 29158 ft | 529 kts | 103° |
| 2026-04-14 15:05 | 50.83831 | 4.02558 | 29366 ft | 530 kts | 103° |
| 2026-04-14 15:05 | 50.82748 | 4.08141 | 29646 ft | 530 kts | 103° |
| 2026-04-14 15:05 | 50.81662 | 4.13726 | 29934 ft | 530 kts | 103° |
| 2026-04-14 15:05 | 50.80587 | 4.19234 | 30160 ft | 530 kts | 103° |
| 2026-04-14 15:06 | 50.79491 | 4.24835 | 30416 ft | 530 kts | 103° |
| 2026-04-14 15:06 | 50.78400 | 4.30391 | 30685 ft | 529 kts | 103° |
| 2026-04-14 15:06 | 50.77308 | 4.35937 | 30957 ft | 528 kts | 103° |
| 2026-04-14 15:06 | 50.76214 | 4.41485 | 31217 ft | 527 kts | 103° |
| 2026-04-14 15:07 | 50.75120 | 4.47012 | 31475 ft | 527 kts | 103° |
| 2026-04-14 15:07 | 50.74024 | 4.52536 | 31735 ft | 526 kts | 103° |
| 2026-04-14 15:07 | 50.72929 | 4.58044 | 31973 ft | 525 kts | 103° |
| 2026-04-14 15:07 | 50.71847 | 4.63467 | 32207 ft | 525 kts | 103° |
| 2026-04-14 15:08 | 50.70746 | 4.68970 | 32493 ft | 523 kts | 104° |
| 2026-04-14 15:08 | 50.69653 | 4.74416 | 32836 ft | 520 kts | 104° |
| 2026-04-14 15:08 | 50.68554 | 4.79880 | 33081 ft | 519 kts | 104° |
| 2026-04-14 15:08 | 50.67456 | 4.85321 | 33270 ft | 519 kts | 104° |
| 2026-04-14 15:09 | 50.66359 | 4.90745 | 33484 ft | 519 kts | 104° |
| 2026-04-14 15:09 | 50.65309 | 4.96124 | 33697 ft | 518 kts | 102° |
| 2026-04-14 15:09 | 50.64382 | 5.01605 | 33912 ft | 516 kts | 100° |
| 2026-04-14 15:09 | 50.63522 | 5.07123 | 34116 ft | 515 kts | 99° |
| 2026-04-14 15:10 | 50.62691 | 5.12549 | 34301 ft | 515 kts | 99° |
| 2026-04-14 15:10 | 50.61841 | 5.18027 | 34505 ft | 514 kts | 100° |
| 2026-04-14 15:10 | 50.60975 | 5.23487 | 34713 ft | 513 kts | 100° |
| 2026-04-14 15:10 | 50.60091 | 5.28942 | 34863 ft | 513 kts | 101° |
| 2026-04-14 15:11 | 50.59197 | 5.34389 | 35014 ft | 513 kts | 101° |
| 2026-04-14 15:11 | 50.58295 | 5.39824 | 35152 ft | 513 kts | 101° |
| 2026-04-14 15:11 | 50.56468 | 5.50764 | 35203 ft | 519 kts | 101° |
| 2026-04-14 15:12 | 50.54619 | 5.61767 | 35201 ft | 520 kts | 101° |
| 2026-04-14 15:12 | 50.52760 | 5.72740 | 35195 ft | 519 kts | 101° |
| 2026-04-14 15:13 | 50.50908 | 5.83629 | 35193 ft | 519 kts | 101° |
| 2026-04-14 15:13 | 50.49034 | 5.94585 | 35191 ft | 519 kts | 101° |
| 2026-04-14 15:14 | 50.47151 | 6.05522 | 35203 ft | 518 kts | 101° |
| 2026-04-14 15:14 | 50.45267 | 6.16391 | 35174 ft | 515 kts | 101° |
| 2026-04-14 15:15 | 50.43377 | 6.27232 | 35191 ft | 515 kts | 101° |
| 2026-04-14 15:15 | 50.41487 | 6.38014 | 35172 ft | 515 kts | 102° |
| 2026-04-14 15:16 | 50.39854 | 6.48932 | 35184 ft | 513 kts | 98° |
| 2026-04-14 15:16 | 50.38436 | 6.59898 | 35181 ft | 512 kts | 98° |
| 2026-04-14 15:17 | 50.36979 | 6.70810 | 35182 ft | 512 kts | 98° |
| 2026-04-14 15:17 | 50.35460 | 6.81723 | 35181 ft | 512 kts | 98° |
| 2026-04-14 15:18 | 50.33911 | 6.92638 | 35182 ft | 512 kts | 99° |
| 2026-04-14 15:18 | 50.32366 | 7.03456 | 35187 ft | 512 kts | 99° |
| 2026-04-14 15:19 | 50.30801 | 7.14340 | 35183 ft | 512 kts | 99° |
| 2026-04-14 15:19 | 50.29225 | 7.25236 | 35188 ft | 512 kts | 99° |
| 2026-04-14 15:20 | 50.27655 | 7.36016 | 35186 ft | 512 kts | 99° |
| 2026-04-14 15:20 | 50.26061 | 7.46880 | 35191 ft | 511 kts | 100° |
| 2026-04-14 15:21 | 50.24473 | 7.57630 | 35189 ft | 510 kts | 100° |
| 2026-04-14 15:21 | 50.22866 | 7.68457 | 35189 ft | 510 kts | 100° |
| 2026-04-14 15:22 | 50.21262 | 7.79203 | 35187 ft | 510 kts | 100° |
| 2026-04-14 15:22 | 50.19638 | 7.90006 | 35187 ft | 510 kts | 101° |
| 2026-04-14 15:23 | 50.18007 | 8.00784 | 35185 ft | 509 kts | 101° |
| 2026-04-14 15:23 | 50.16378 | 8.11472 | 35184 ft | 509 kts | 101° |
| 2026-04-14 15:24 | 50.14727 | 8.22226 | 35184 ft | 509 kts | 101° |
| 2026-04-14 15:24 | 50.13069 | 8.32970 | 35183 ft | 509 kts | 102° |
| 2026-04-14 15:25 | 50.11402 | 8.43695 | 35180 ft | 508 kts | 102° |
| 2026-04-14 15:25 | 50.09726 | 8.54397 | 35185 ft | 507 kts | 102° |
| 2026-04-14 15:26 | 50.08055 | 8.65006 | 35184 ft | 507 kts | 102° |
| 2026-04-14 15:26 | 50.06364 | 8.75671 | 35182 ft | 507 kts | 102° |
| 2026-04-14 15:27 | 50.04308 | 8.86144 | 35183 ft | 508 kts | 107° |
| 2026-04-14 15:27 | 50.01973 | 8.96569 | 35180 ft | 509 kts | 108° |
| 2026-04-14 15:28 | 49.99606 | 9.06939 | 35179 ft | 509 kts | 108° |
| 2026-04-14 15:28 | 49.97249 | 9.17251 | 35176 ft | 508 kts | 108° |
| 2026-04-14 15:29 | 49.94885 | 9.27574 | 35179 ft | 506 kts | 108° |
| 2026-04-14 15:29 | 49.92527 | 9.37830 | 35176 ft | 506 kts | 108° |
| 2026-04-14 15:30 | 49.90144 | 9.48145 | 35177 ft | 506 kts | 108° |
| 2026-04-14 15:30 | 49.87769 | 9.58379 | 35182 ft | 506 kts | 109° |
| 2026-04-14 15:31 | 49.85375 | 9.68642 | 35176 ft | 504 kts | 109° |
| 2026-04-14 15:31 | 49.82978 | 9.78869 | 35175 ft | 504 kts | 109° |
| 2026-04-14 15:32 | 49.80590 | 9.89011 | 35178 ft | 504 kts | 109° |
| 2026-04-14 15:32 | 49.78179 | 9.99203 | 35198 ft | 504 kts | 109° |
| 2026-04-14 15:33 | 49.75753 | 10.09413 | 35192 ft | 504 kts | 110° |
| 2026-04-14 15:33 | 49.73326 | 10.19575 | 35198 ft | 503 kts | 110° |
| 2026-04-14 15:34 | 49.70892 | 10.29716 | 35200 ft | 502 kts | 110° |
| 2026-04-14 15:34 | 49.68446 | 10.39866 | 35196 ft | 502 kts | 110° |
| 2026-04-14 15:35 | 49.66015 | 10.49908 | 35196 ft | 502 kts | 110° |
| 2026-04-14 15:35 | 49.63562 | 10.59993 | 35196 ft | 501 kts | 110° |
| 2026-04-14 15:36 | 49.61111 | 10.70019 | 35194 ft | 501 kts | 110° |
| 2026-04-14 15:36 | 49.58639 | 10.80091 | 35188 ft | 501 kts | 111° |
| 2026-04-14 15:37 | 49.56169 | 10.90104 | 35185 ft | 501 kts | 111° |
| 2026-04-14 15:37 | 49.53681 | 11.00152 | 35184 ft | 501 kts | 111° |
| 2026-04-14 15:38 | 49.51172 | 11.10111 | 35184 ft | 501 kts | 112° |
| 2026-04-14 15:38 | 49.48462 | 11.20002 | 35184 ft | 501 kts | 113° |
| 2026-04-14 15:39 | 49.45710 | 11.29878 | 35181 ft | 500 kts | 114° |
| 2026-04-14 15:39 | 49.43002 | 11.39675 | 35178 ft | 500 kts | 113° |
| 2026-04-14 15:40 | 49.40285 | 11.49535 | 35173 ft | 500 kts | 113° |
| 2026-04-14 15:40 | 49.37567 | 11.59376 | 35173 ft | 499 kts | 114° |
| 2026-04-14 15:41 | 49.34860 | 11.69131 | 35170 ft | 498 kts | 114° |
| 2026-04-14 15:41 | 49.32140 | 11.78886 | 35171 ft | 497 kts | 114° |
| 2026-04-14 15:42 | 49.29870 | 11.86997 | 35159 ft | 497 kts | 114° |
| 2026-04-14 15:42 | 49.27129 | 11.96750 | 35159 ft | 497 kts | 114° |
| 2026-04-14 15:43 | 49.24385 | 12.06478 | 35152 ft | 497 kts | 114° |
| 2026-04-14 15:43 | 49.21639 | 12.16173 | 35158 ft | 495 kts | 114° |
| 2026-04-14 15:44 | 49.18889 | 12.25844 | 35151 ft | 495 kts | 115° |